createdAt,value
2022-08-16T00:00:04.590Z,1.88
2022-08-16T00:02:11.948Z,1.60
2022-08-16T00:04:17.998Z,1.85
2022-08-16T00:06:24.585Z,1.90
2022-08-16T00:08:36.494Z,2.33
2022-08-16T00:10:42.474Z,2.33
2022-08-16T00:12:48.334Z,2.45
2022-08-16T00:14:58.673Z,2.40
2022-08-16T00:17:18.934Z,2.63
2022-08-16T00:19:28.566Z,2.67
2022-08-16T00:21:53.136Z,2.58
2022-08-16T00:24:04.858Z,2.90
2022-08-16T00:26:35.447Z,2.92
2022-08-16T00:28:35.136Z,2.80
2022-08-16T00:30:43.335Z,2.83
2022-08-16T00:32:52.635Z,2.55
2022-08-16T00:35:02.021Z,2.90
2022-08-16T00:37:07.133Z,3.03
2022-08-16T00:41:21.097Z,2.95
2022-08-16T00:43:43.229Z,2.95
2022-08-16T00:46:00.360Z,2.67
2022-08-16T00:48:30.651Z,3.00
2022-08-16T00:50:36.840Z,2.63
2022-08-16T00:52:50.553Z,3.17
2022-08-16T00:54:56.490Z,3.90
2022-08-16T00:57:04.486Z,3.53
2022-08-16T00:59:15.216Z,3.33
2022-08-16T01:01:23.941Z,3.58
2022-08-16T01:03:34.954Z,3.50
2022-08-16T01:05:41.229Z,3.55
2022-08-16T01:07:50.718Z,3.00
2022-08-16T01:09:57.941Z,3.92
2022-08-16T01:12:08.476Z,3.45
2022-08-16T01:14:20.315Z,3.25
2022-08-16T01:16:34.907Z,3.17
2022-08-16T01:18:44.237Z,3.83
2022-08-16T01:20:56.067Z,3.70
2022-08-16T01:23:08.682Z,3.38
2022-08-16T01:25:22.092Z,3.38
2022-08-16T01:27:34.746Z,3.45
2022-08-16T01:29:56.949Z,3.17
2022-08-16T01:32:04.095Z,2.97
2022-08-16T01:34:22.646Z,3.42
2022-08-16T01:36:30.553Z,3.00
2022-08-16T01:38:39.094Z,3.33
2022-08-16T01:40:47.596Z,3.20
2022-08-16T01:42:53.991Z,3.38
2022-08-16T01:45:00.780Z,3.80
2022-08-16T01:47:06.170Z,3.63
2022-08-16T01:49:14.934Z,3.42
2022-08-16T01:51:23.997Z,3.17
2022-08-16T01:53:30.870Z,3.13
2022-08-16T01:55:54.143Z,3.40
2022-08-16T01:58:00.622Z,2.92
2022-08-16T02:00:10.502Z,3.38
2022-08-16T02:02:26.748Z,3.17
2022-08-16T02:04:49.115Z,2.92
2022-08-16T02:07:03.938Z,3.20
2022-08-16T02:09:12.826Z,3.40
2022-08-16T02:11:21.531Z,2.90
2022-08-16T02:13:27.924Z,3.28
2022-08-16T02:15:42.317Z,3.10
2022-08-16T02:17:48.955Z,3.45
2022-08-16T02:20:00.159Z,3.05
2022-08-16T02:22:08.688Z,3.10
2022-08-16T02:24:32.900Z,3.17
2022-08-16T02:26:48.974Z,3.60
2022-08-16T02:28:55.272Z,2.90
2022-08-16T02:31:05.194Z,3.85
2022-08-16T02:33:11.822Z,3.55
2022-08-16T02:35:17.324Z,3.63
2022-08-16T02:37:39.702Z,4.07
2022-08-16T02:39:54.031Z,3.95
2022-08-16T02:42:02.381Z,3.58
2022-08-16T02:44:08.725Z,3.30
2022-08-16T02:46:14.085Z,3.42
2022-08-16T02:48:29.351Z,3.42
2022-08-16T02:50:55.124Z,3.65
2022-08-16T02:53:01.030Z,3.60
2022-08-16T02:55:09.327Z,4.18
2022-08-16T02:57:16.998Z,4.10
2022-08-16T02:59:23.436Z,4.00
2022-08-16T03:01:37.145Z,3.88
2022-08-16T03:04:40.734Z,3.83
2022-08-16T03:06:36.411Z,3.97
2022-08-16T03:08:56.105Z,3.92
2022-08-16T03:11:03.353Z,4.35
2022-08-16T03:13:12.886Z,4.50
2022-08-16T03:15:20.984Z,3.70
2022-08-16T03:17:32.214Z,3.80
2022-08-16T03:19:48.627Z,3.67
2022-08-16T03:22:05.538Z,3.75
2022-08-16T03:24:29.260Z,3.90
2022-08-16T03:26:35.989Z,3.83
2022-08-16T03:28:44.509Z,3.78
2022-08-16T03:30:52.015Z,3.67
2022-08-16T03:33:01.020Z,3.28
2022-08-16T03:35:12.232Z,4.25
2022-08-16T03:37:17.270Z,3.63
2022-08-16T03:39:22.396Z,4.15
2022-08-16T03:43:54.828Z,4.20
2022-08-16T03:46:04.304Z,3.97
2022-08-16T03:48:15.134Z,4.10
2022-08-16T03:50:25.952Z,4.13
2022-08-16T03:52:32.740Z,4.05
2022-08-16T03:54:40.086Z,4.43
2022-08-16T03:56:59.292Z,4.15
2022-08-16T03:59:09.438Z,4.38
2022-08-16T04:01:29.423Z,4.60
2022-08-16T04:03:35.607Z,4.85
2022-08-16T04:05:44.471Z,4.20
2022-08-16T04:07:53.018Z,4.05
2022-08-16T04:09:59.182Z,4.80
2022-08-16T04:12:04.248Z,4.13
2022-08-16T04:14:33.408Z,4.93
2022-08-16T04:16:41.499Z,5.07
2022-08-16T04:19:05.616Z,5.28
2022-08-16T04:21:11.502Z,4.78
2022-08-16T04:23:16.685Z,4.97
2022-08-16T04:25:23.717Z,5.68
2022-08-16T04:29:44.142Z,5.05
2022-08-16T04:31:56.299Z,5.30
2022-08-16T04:34:07.190Z,4.70
2022-08-16T04:36:19.967Z,4.97
2022-08-16T04:38:26.271Z,5.28
2022-08-16T04:40:33.210Z,5.85
2022-08-16T04:42:39.952Z,4.90
2022-08-16T04:44:53.983Z,4.53
2022-08-16T04:47:21.777Z,5.90
2022-08-16T04:49:38.444Z,5.75
2022-08-16T04:51:53.608Z,4.80
2022-08-16T04:54:00.132Z,4.90
2022-08-16T04:56:11.282Z,4.70
2022-08-16T04:58:44.081Z,4.85
2022-08-16T05:00:45.064Z,5.00
2022-08-16T05:02:58.915Z,4.70
2022-08-16T05:05:08.326Z,5.85
2022-08-16T05:07:22.309Z,5.33
2022-08-16T05:09:39.785Z,5.10
2022-08-16T05:11:50.248Z,6.35
2022-08-16T05:13:56.222Z,5.65
2022-08-16T05:16:21.430Z,5.80
2022-08-16T05:18:33.879Z,5.50
2022-08-16T05:20:54.244Z,6.38
2022-08-16T05:23:04.283Z,6.80
2022-08-16T05:25:15.868Z,5.25
2022-08-16T05:27:26.462Z,5.22
2022-08-16T05:30:00.013Z,5.47
2022-08-16T05:32:04.034Z,5.32
2022-08-16T05:34:29.102Z,5.32
2022-08-16T05:36:37.006Z,4.80
2022-08-16T05:38:43.779Z,4.78
2022-08-16T05:41:00.135Z,4.95
2022-08-16T05:43:12.453Z,5.43
2022-08-16T05:45:22.188Z,5.60
2022-08-16T05:47:43.247Z,4.90
2022-08-16T05:49:50.575Z,4.72
2022-08-16T05:51:57.043Z,5.20
2022-08-16T05:54:03.229Z,5.68
2022-08-16T05:56:09.487Z,4.38
2022-08-16T05:58:31.654Z,5.53
2022-08-16T06:00:38.427Z,4.45
2022-08-16T06:02:46.386Z,5.00
2022-08-16T06:05:21.753Z,4.38
2022-08-16T06:07:27.911Z,3.58
2022-08-16T06:09:44.740Z,3.83
2022-08-16T06:11:53.115Z,4.32
2022-08-16T06:13:58.764Z,4.22
2022-08-16T06:16:27.097Z,4.13
2022-08-16T06:18:36.227Z,5.03
2022-08-16T06:20:55.401Z,4.63
2022-08-16T06:23:03.597Z,3.75
2022-08-16T06:25:35.771Z,3.90
2022-08-16T06:27:42.357Z,4.15
2022-08-16T06:30:03.971Z,4.28
2022-08-16T06:32:11.687Z,4.10
2022-08-16T06:34:57.064Z,4.60
2022-08-16T06:37:01.038Z,3.97
2022-08-16T06:39:06.861Z,4.15
2022-08-16T06:41:27.839Z,3.78
2022-08-16T06:43:33.796Z,3.97
2022-08-16T06:45:43.738Z,4.00
2022-08-16T06:47:57.673Z,3.88
2022-08-16T06:50:09.060Z,4.25
2022-08-16T06:52:58.491Z,4.07
2022-08-16T06:54:57.715Z,4.20
2022-08-16T06:57:03.922Z,3.58
2022-08-16T06:59:10.392Z,3.38
2022-08-16T07:01:44.997Z,3.35
2022-08-16T07:03:55.082Z,3.70
2022-08-16T07:06:06.931Z,3.92
2022-08-16T07:08:20.762Z,4.63
2022-08-16T07:10:26.899Z,3.47
2022-08-16T07:12:36.579Z,3.95
2022-08-16T07:14:52.180Z,3.15
2022-08-16T07:19:04.611Z,3.65
2022-08-16T07:21:17.569Z,4.07
2022-08-16T07:23:37.257Z,3.38
2022-08-16T07:25:47.084Z,3.60
2022-08-16T07:27:53.488Z,3.95
2022-08-16T07:30:02.286Z,3.55
2022-08-16T07:32:10.368Z,3.55
2022-08-16T07:34:15.602Z,2.90
2022-08-16T07:38:33.882Z,3.63
2022-08-16T07:41:00.638Z,3.00
2022-08-16T07:43:06.416Z,2.92
2022-08-16T07:45:14.149Z,2.88
2022-08-16T07:47:31.667Z,3.25
2022-08-16T07:49:37.278Z,2.92
2022-08-16T07:52:02.279Z,3.30
2022-08-16T07:54:32.153Z,2.15
2022-08-16T07:56:46.275Z,3.03
2022-08-16T07:58:55.397Z,3.40
2022-08-16T08:01:01.752Z,3.25
2022-08-16T08:03:10.705Z,3.47
2022-08-16T08:05:16.944Z,2.80
2022-08-16T08:07:34.674Z,2.70
2022-08-16T08:09:43.793Z,3.25
2022-08-16T08:11:59.842Z,2.83
2022-08-16T08:14:29.853Z,2.40
2022-08-16T08:16:37.342Z,2.60
2022-08-16T08:18:50.199Z,2.30
2022-08-16T08:20:59.253Z,2.80
2022-08-16T08:23:08.943Z,3.33
2022-08-16T08:25:18.540Z,3.05
2022-08-16T08:27:24.370Z,2.60
2022-08-16T08:29:37.279Z,3.10
2022-08-16T08:31:45.641Z,2.80
2022-08-16T08:33:51.834Z,3.00
2022-08-16T08:36:00.702Z,3.33
2022-08-16T08:38:09.232Z,2.90
2022-08-16T08:40:19.288Z,2.70
2022-08-16T08:42:30.042Z,2.75
2022-08-16T08:44:37.590Z,2.58
2022-08-16T08:47:00.716Z,2.53
2022-08-16T08:49:09.446Z,2.95
2022-08-16T08:51:20.061Z,3.55
2022-08-16T08:53:34.298Z,2.95
2022-08-16T08:55:39.989Z,2.35
2022-08-16T08:57:48.103Z,2.67
2022-08-16T09:00:26.933Z,3.05
2022-08-16T09:02:36.616Z,2.40
2022-08-16T09:04:42.709Z,3.03
2022-08-16T09:06:54.024Z,2.08
2022-08-16T09:09:03.485Z,2.80
2022-08-16T09:11:09.696Z,2.80
2022-08-16T09:13:20.671Z,2.42
2022-08-16T09:15:32.619Z,2.70
2022-08-16T09:17:48.927Z,2.95
2022-08-16T09:19:59.415Z,2.78
2022-08-16T09:22:07.409Z,3.30
2022-08-16T09:24:51.849Z,2.53
2022-08-16T09:26:53.643Z,3.22
2022-08-16T09:29:16.112Z,2.40
2022-08-16T09:31:24.828Z,2.80
2022-08-16T09:35:42.672Z,2.78
2022-08-16T09:37:47.828Z,2.70
2022-08-16T09:40:32.310Z,2.70
2022-08-16T09:42:55.951Z,3.30
2022-08-16T09:45:11.777Z,2.78
2022-08-16T09:47:23.442Z,3.50
2022-08-16T09:49:36.939Z,2.70
2022-08-16T09:51:42.469Z,3.13
2022-08-16T09:53:54.030Z,3.58
2022-08-16T09:56:04.786Z,2.67
2022-08-16T09:58:37.853Z,3.25
2022-08-16T10:00:44.100Z,3.35
2022-08-16T10:02:49.978Z,2.67
2022-08-16T10:04:57.063Z,2.70
2022-08-16T10:07:02.621Z,2.00
2022-08-16T10:09:18.581Z,3.30
2022-08-16T10:11:50.069Z,2.60
2022-08-16T10:13:55.883Z,2.63
2022-08-16T10:16:00.738Z,3.00
2022-08-16T10:18:41.265Z,2.33
2022-08-16T10:20:36.321Z,3.03
2022-08-16T10:22:42.711Z,2.28
2022-08-16T10:24:55.967Z,2.65
2022-08-16T10:27:25.353Z,2.00
2022-08-16T10:30:00.708Z,2.88
2022-08-16T10:31:58.608Z,2.50
2022-08-16T10:34:04.737Z,2.70
2022-08-16T10:36:38.609Z,2.72
2022-08-16T10:38:44.809Z,2.90
2022-08-16T10:40:49.728Z,2.60
2022-08-16T10:42:59.151Z,3.05
2022-08-16T10:45:05.385Z,2.45
2022-08-16T10:47:10.297Z,2.10
2022-08-16T10:49:18.183Z,2.35
2022-08-16T10:51:27.842Z,2.58
2022-08-16T10:53:40.701Z,2.55
2022-08-16T10:55:45.803Z,2.33
2022-08-16T10:57:51.878Z,2.08
2022-08-16T10:59:59.277Z,2.47
2022-08-16T11:09:25.262Z,2.63
2022-08-16T11:11:33.859Z,2.75
2022-08-16T11:18:48.936Z,2.20
2022-08-16T11:20:59.598Z,2.53
2022-08-16T11:23:04.468Z,2.05
2022-08-16T11:25:12.384Z,2.13
2022-08-16T11:27:23.323Z,2.67
2022-08-16T11:29:28.744Z,3.25
2022-08-16T11:33:58.629Z,2.90
2022-08-16T11:38:51.637Z,2.67
2022-08-16T11:40:56.924Z,2.38
2022-08-16T11:43:04.775Z,2.00
2022-08-16T11:45:11.217Z,2.00
2022-08-16T11:47:19.435Z,2.15
2022-08-16T11:49:24.358Z,2.05
2022-08-16T11:53:36.017Z,2.45
2022-08-16T11:55:43.989Z,2.15
2022-08-16T11:57:49.455Z,2.35
2022-08-16T11:59:56.750Z,2.33
2022-08-16T12:02:04.404Z,2.22
2022-08-16T12:04:30.228Z,2.35
2022-08-16T12:06:35.148Z,1.98
2022-08-16T12:08:41.760Z,1.98
2022-08-16T12:10:47.620Z,1.90
2022-08-16T12:14:59.854Z,1.70
2022-08-16T12:17:08.281Z,1.90
2022-08-16T12:19:13.780Z,1.83
2022-08-16T12:21:21.621Z,1.70
2022-08-16T12:23:27.584Z,1.83
2022-08-16T12:25:37.929Z,1.50
2022-08-16T12:27:44.563Z,1.80
2022-08-16T12:29:52.157Z,1.98
2022-08-16T12:34:28.886Z,1.98
2022-08-16T12:36:39.374Z,1.85
2022-08-16T12:38:48.943Z,1.20
2022-08-16T12:40:55.603Z,1.70
2022-08-16T12:43:04.317Z,2.10
2022-08-16T12:45:14.462Z,1.55
2022-08-16T12:47:32.838Z,1.80
2022-08-16T12:49:41.992Z,1.80
2022-08-16T12:51:59.855Z,1.85
2022-08-16T12:54:09.509Z,1.80
2022-08-16T12:56:15.624Z,1.95
2022-08-16T12:58:50.012Z,1.40
2022-08-16T13:00:49.750Z,2.00
2022-08-16T13:02:54.638Z,2.00
2022-08-16T13:07:08.640Z,2.10
2022-08-16T13:09:26.045Z,1.77
2022-08-16T13:11:41.509Z,1.60
2022-08-16T13:13:54.998Z,1.90
2022-08-16T13:16:05.704Z,2.35
2022-08-16T13:18:27.232Z,1.98
2022-08-16T13:20:39.295Z,2.20
2022-08-16T13:22:49.784Z,1.55
2022-08-16T13:24:55.483Z,1.83
2022-08-16T13:27:01.272Z,1.67
2022-08-16T13:31:12.250Z,1.63
2022-08-16T13:33:24.761Z,2.08
2022-08-16T13:35:35.076Z,1.73
2022-08-16T13:37:41.719Z,2.15
2022-08-16T13:39:49.408Z,1.80
2022-08-16T13:41:55.143Z,1.90
2022-08-16T13:44:00.574Z,1.60
2022-08-16T13:46:05.634Z,1.90
2022-08-16T13:48:11.098Z,1.95
2022-08-16T13:50:31.197Z,2.00
2022-08-16T13:52:53.563Z,1.88
2022-08-16T13:55:04.194Z,1.60
2022-08-16T13:57:11.518Z,1.98
2022-08-16T13:59:20.838Z,1.63
2022-08-16T14:01:26.332Z,1.60
2022-08-16T14:03:31.919Z,1.55
2022-08-16T14:05:39.325Z,1.48
2022-08-16T14:09:55.779Z,2.53
2022-08-16T14:12:17.558Z,1.63
2022-08-16T14:14:28.631Z,1.58
2022-08-16T14:16:34.838Z,1.65
2022-08-16T14:18:40.208Z,1.60
2022-08-16T14:20:48.579Z,1.25
2022-08-16T14:22:58.246Z,1.65
2022-08-16T14:25:07.277Z,1.50
2022-08-16T14:27:18.793Z,1.30
2022-08-16T14:29:26.258Z,1.73
2022-08-16T14:31:39.741Z,1.70
2022-08-16T14:33:45.797Z,1.50
2022-08-16T14:35:50.974Z,1.50
2022-08-16T14:37:56.914Z,1.67
2022-08-16T14:40:03.317Z,1.30
2022-08-16T14:42:10.672Z,1.50
2022-08-16T14:44:21.133Z,1.40
2022-08-16T14:46:26.359Z,2.83
2022-08-16T14:48:31.353Z,1.67
2022-08-16T14:50:37.256Z,1.75
2022-08-16T14:52:58.019Z,2.17
2022-08-16T14:55:03.054Z,1.60
2022-08-16T14:57:09.049Z,1.45
2022-08-16T14:59:13.892Z,1.90
2022-08-16T15:01:22.860Z,1.60
2022-08-16T15:03:28.217Z,1.98
2022-08-16T15:05:39.815Z,1.67
2022-08-16T15:07:45.840Z,1.20
2022-08-16T15:10:00.717Z,1.92
2022-08-16T15:12:26.132Z,1.65
2022-08-16T15:14:32.075Z,1.80
2022-08-16T15:18:50.875Z,1.70
2022-08-16T15:23:02.444Z,1.50
2022-08-16T15:25:10.925Z,1.40
2022-08-16T15:27:15.789Z,1.80
2022-08-16T15:31:29.039Z,1.25
2022-08-16T15:33:42.706Z,1.50
2022-08-16T15:35:52.655Z,1.10
2022-08-16T15:38:02.691Z,1.20
2022-08-16T15:40:32.510Z,1.40
2022-08-16T15:42:40.519Z,1.55
2022-08-16T15:44:54.740Z,1.48
2022-08-16T15:47:02.654Z,1.27
2022-08-16T15:49:12.082Z,1.40
2022-08-16T15:51:17.347Z,1.30
2022-08-16T15:53:27.383Z,1.55
2022-08-16T15:55:35.836Z,1.67
2022-08-16T15:57:41.586Z,1.52
2022-08-16T15:59:52.657Z,1.35
2022-08-16T16:02:00.843Z,1.40
2022-08-16T16:04:06.202Z,1.80
2022-08-16T16:06:17.090Z,1.42
2022-08-16T16:08:27.590Z,1.52
2022-08-16T16:10:33.834Z,1.70
2022-08-16T16:12:53.313Z,2.38
2022-08-16T16:14:59.542Z,1.27
2022-08-16T16:17:06.333Z,1.92
2022-08-16T16:19:11.637Z,1.60
2022-08-16T16:21:20.447Z,1.70
2022-08-16T16:23:29.976Z,1.25
2022-08-16T16:25:36.311Z,1.48
2022-08-16T16:27:41.307Z,1.60
2022-08-16T16:29:57.786Z,1.33
2022-08-16T16:32:08.039Z,2.75
2022-08-16T16:34:13.565Z,1.85
2022-08-16T16:36:26.858Z,2.22
2022-08-16T16:38:35.027Z,1.75
2022-08-16T16:40:46.437Z,1.77
2022-08-16T16:43:00.103Z,2.33
2022-08-16T16:45:05.726Z,1.85
2022-08-16T16:47:15.246Z,1.90
2022-08-16T16:51:27.900Z,2.28
2022-08-16T16:53:37.793Z,1.70
2022-08-16T16:55:43.970Z,1.70
2022-08-16T16:58:05.533Z,1.90
2022-08-16T17:00:30.327Z,1.73
2022-08-16T17:02:49.719Z,1.80
2022-08-16T17:04:58.802Z,1.85
2022-08-16T17:09:16.570Z,1.65
2022-08-16T17:11:21.591Z,1.80
2022-08-16T17:13:27.865Z,1.80
2022-08-16T17:15:36.271Z,1.65
2022-08-16T17:18:00.434Z,1.60
2022-08-16T17:20:12.741Z,2.08
2022-08-16T17:22:23.513Z,2.20
2022-08-16T17:24:31.407Z,1.92
2022-08-16T17:26:48.999Z,1.80
2022-08-16T17:28:58.278Z,1.92
2022-08-16T17:31:07.255Z,1.50
2022-08-16T17:33:13.378Z,1.70
2022-08-16T17:35:20.871Z,1.55
2022-08-16T17:37:42.212Z,1.60
2022-08-16T17:40:00.214Z,1.60
2022-08-16T17:42:15.864Z,1.77
2022-08-16T17:44:20.793Z,1.83
2022-08-16T17:48:50.694Z,1.92
2022-08-16T17:50:56.979Z,1.83
2022-08-16T17:53:04.589Z,2.25
2022-08-16T17:55:12.330Z,1.90
2022-08-16T17:57:17.267Z,1.60
2022-08-16T18:01:30.296Z,1.80
2022-08-16T18:03:40.836Z,1.90
2022-08-16T18:06:03.190Z,1.75
2022-08-16T18:08:10.632Z,1.90
2022-08-16T18:10:32.665Z,2.00
2022-08-16T18:12:55.535Z,2.03
2022-08-16T18:15:01.107Z,1.50
2022-08-16T18:17:05.986Z,1.55
2022-08-16T18:21:29.801Z,2.28
2022-08-16T18:23:37.914Z,1.80
2022-08-16T18:25:44.059Z,2.05
2022-08-16T18:27:49.433Z,2.15
2022-08-16T18:29:54.342Z,2.22
2022-08-16T18:34:04.057Z,2.10
2022-08-16T18:36:19.965Z,2.33
2022-08-16T18:38:26.290Z,2.30
2022-08-16T18:40:34.109Z,2.38
2022-08-16T18:42:39.164Z,2.30
2022-08-16T18:44:45.722Z,2.75
2022-08-16T18:46:51.600Z,2.25
2022-08-16T18:48:56.508Z,2.28
2022-08-16T18:51:05.345Z,2.15
2022-08-16T18:53:15.885Z,2.08
2022-08-16T18:55:21.312Z,2.60
2022-08-16T18:57:29.548Z,2.53
2022-08-16T18:59:34.489Z,2.40
2022-08-16T19:03:44.322Z,2.60
2022-08-16T19:05:52.883Z,3.17
2022-08-16T19:07:57.881Z,3.28
2022-08-16T19:12:08.899Z,2.80
2022-08-16T19:14:16.574Z,2.60
2022-08-16T19:16:21.832Z,2.35
2022-08-16T19:18:27.908Z,3.08
2022-08-16T19:20:33.088Z,3.15
2022-08-16T19:23:01.696Z,3.22
2022-08-16T19:25:03.339Z,2.80
2022-08-16T19:27:10.817Z,2.83
2022-08-16T19:29:18.281Z,2.75
2022-08-16T19:31:26.354Z,2.72
2022-08-16T19:33:31.830Z,2.85
2022-08-16T19:35:36.764Z,2.30
2022-08-16T19:37:46.554Z,3.47
2022-08-16T19:39:51.862Z,2.90
2022-08-16T19:44:01.456Z,2.55
2022-08-16T19:48:13.716Z,2.60
2022-08-16T19:50:19.854Z,3.15
2022-08-16T19:52:40.645Z,3.20
2022-08-16T19:56:50.190Z,3.05
2022-08-16T20:01:25.521Z,2.83
2022-08-16T20:03:30.659Z,3.05
2022-08-16T20:05:37.046Z,2.63
2022-08-16T20:07:42.025Z,2.90
2022-08-16T20:09:47.754Z,2.95
2022-08-16T20:11:56.040Z,2.30
2022-08-16T20:14:01.180Z,2.60
2022-08-16T20:16:06.519Z,2.50
2022-08-16T20:18:25.058Z,2.20
2022-08-16T20:20:31.436Z,2.30
2022-08-16T20:22:53.103Z,2.58
2022-08-16T20:24:59.167Z,2.80
2022-08-16T20:29:08.644Z,2.80
2022-08-16T20:31:14.089Z,2.80
2022-08-16T20:33:21.862Z,2.88
2022-08-16T20:35:28.866Z,2.40
2022-08-16T20:37:35.704Z,3.00
2022-08-16T20:39:44.251Z,3.60
2022-08-16T20:41:49.282Z,3.15
2022-08-16T20:43:54.956Z,2.97
2022-08-16T20:46:00.075Z,3.38
2022-08-16T20:48:05.228Z,3.35
2022-08-16T20:52:21.573Z,3.47
2022-08-16T20:54:26.643Z,3.20
2022-08-16T20:56:31.788Z,3.03
2022-08-16T21:00:41.339Z,2.88
2022-08-16T21:04:51.073Z,2.88
2022-08-16T21:06:59.394Z,2.92
2022-08-16T21:09:05.804Z,2.65
2022-08-16T21:11:10.668Z,3.25
2022-08-16T21:13:17.621Z,3.13
2022-08-16T21:17:28.189Z,2.80
2022-08-16T21:19:33.684Z,2.80
2022-08-16T21:21:38.701Z,3.20
2022-08-16T21:25:54.812Z,3.00
2022-08-16T21:28:40.878Z,3.10
2022-08-16T21:30:32.325Z,2.88
2022-08-16T21:32:37.554Z,2.90
2022-08-16T21:34:42.847Z,3.00
2022-08-16T21:36:47.712Z,3.05
2022-08-16T21:38:55.240Z,2.88
2022-08-16T21:41:00.321Z,3.00
2022-08-16T21:43:09.704Z,2.70
2022-08-16T21:45:16.825Z,2.70
2022-08-16T21:47:21.655Z,2.70
2022-08-16T21:49:26.539Z,2.80
2022-08-16T21:51:31.463Z,2.50
2022-08-16T21:53:37.792Z,3.13
2022-08-16T21:55:47.703Z,2.95
2022-08-16T21:57:52.554Z,2.97
2022-08-16T21:59:58.403Z,2.90
2022-08-16T22:02:03.263Z,3.13
2022-08-16T22:04:36.921Z,2.67
2022-08-16T22:06:34.690Z,2.63
2022-08-16T22:08:50.261Z,2.88
2022-08-16T22:11:06.632Z,2.70
2022-08-16T22:13:19.189Z,3.20
2022-08-16T22:15:27.023Z,3.00
2022-08-16T22:17:31.891Z,3.22
2022-08-16T22:19:36.709Z,2.88
2022-08-16T22:21:41.604Z,2.70
2022-08-16T22:23:56.884Z,3.40
2022-08-16T22:26:05.800Z,2.85
2022-08-16T22:28:11.094Z,3.35
2022-08-16T22:30:18.013Z,3.40
2022-08-16T22:32:24.181Z,3.33
2022-08-16T22:34:29.166Z,3.08
2022-08-16T22:36:36.226Z,3.40
2022-08-16T22:38:50.477Z,2.95
2022-08-16T22:41:02.025Z,3.40
2022-08-16T22:43:09.885Z,3.28
2022-08-16T22:45:17.654Z,2.97
2022-08-16T22:47:22.620Z,3.33
2022-08-16T22:49:30.280Z,3.83
2022-08-16T22:51:35.428Z,3.90
2022-08-16T22:55:45.250Z,3.80
2022-08-16T22:59:57.830Z,3.80
2022-08-16T23:02:05.734Z,3.33
2022-08-16T23:04:10.727Z,3.67
2022-08-16T23:06:16.520Z,3.58
2022-08-16T23:08:38.338Z,3.35
2022-08-16T23:10:44.465Z,3.58
2022-08-16T23:12:53.169Z,3.85
2022-08-16T23:15:04.694Z,4.20
2022-08-16T23:17:11.709Z,3.53
2022-08-16T23:19:18.332Z,4.28
2022-08-16T23:21:24.048Z,4.50
2022-08-16T23:23:32.437Z,3.85
2022-08-16T23:25:38.969Z,4.65
2022-08-16T23:27:43.975Z,4.20
2022-08-16T23:31:58.784Z,4.05
2022-08-16T23:34:03.897Z,4.00
2022-08-16T23:38:38.029Z,3.28
2022-08-16T23:40:40.923Z,4.28
2022-08-16T23:42:56.928Z,3.90
2022-08-16T23:45:01.850Z,3.67
2022-08-16T23:47:09.714Z,4.22
2022-08-16T23:49:59.360Z,3.90
2022-08-16T23:51:40.091Z,4.60
2022-08-16T23:53:47.220Z,4.45
2022-08-16T23:55:54.469Z,4.22
2022-08-16T23:58:00.408Z,3.80
